Tropical Cyclones
[Index]
Main Index Home Page Stock Weather Photos Extreme Storms Discussion Storm News and Storm Chasing Reports Tropical Cyclones / Hurricanes / Typhoons Weather Data and Links Wild Fires / Bushfires Weather Observation Techniques Weather Picture Catalogue Tornado Pictures and Reports Stock Video Footage and DVDs for sale
Season 1995-1996 Tropical Cyclone EDWIGE Track Map
Season 1995-1996 Summaries: [BoM-AU] [JTWC-AU] [JTWC-SIO] [JTWC-SPAC] [JTWC-SH]
<<- Previous TC | JTWC 1995-1996 Season | Next TC ->>

click for intensity scale information  Lat/long Grid: Show Hide

 Date Labels: Show Hide

Joint Typhoon Warning Centre Cyclone Data

Name: EDWIGE

18 Feb 1996 00:00 UTC to 29 Feb 1996 18:00 UTC

    date/time    lat    long     hPa   cat  kts
1996-02-18 00    9.9    68.0                  15          
1996-02-18 06   10.5    67.5                  20          
1996-02-18 12   11.1    67.0                  15          
1996-02-18 18   11.8    66.6                  20          
1996-02-19 00   12.5    66.3                  20          
1996-02-19 06   13.3    66.1                  20          
1996-02-19 12   14.0    66.1                  20          
1996-02-19 18   14.6    66.1                  25          
1996-02-20 00   15.2    66.4                  25          
1996-02-20 06   15.7    67.0                  25          
1996-02-20 12   16.2    67.9                  25          
1996-02-20 18   16.6    68.7                  30          
1996-02-21 00   16.9    69.5                  35          
1996-02-21 06   17.2    70.3            1     40          
1996-02-21 12   17.5    71.1            1     45          
1996-02-21 18   18.0    71.6            1     45          
1996-02-22 00   18.5    71.7            1     45          
1996-02-22 06   19.2    71.6            1     45          
1996-02-22 12   19.9    71.4            1     45          
1996-02-22 18   20.6    71.1            1     45          
1996-02-23 00   21.3    70.5            1     45          
1996-02-23 06   21.7    70.1            1     45          
1996-02-23 12   21.9    69.7            1     45          
1996-02-23 18   22.0    68.6                  35          
1996-02-24 00   21.7    67.0                  30          
1996-02-24 06   20.8    65.1                  30          
1996-02-24 12   19.8    63.2                  30          
1996-02-24 18   19.0    61.5                  30          
1996-02-25 00   18.5    59.6                  30          
1996-02-25 06   18.7    57.4                  30          
1996-02-25 12   18.9    55.2                  35          
1996-02-25 18   19.2    53.3            1     45          
1996-02-26 00   19.6    51.3            2     60          
1996-02-26 06   19.9    50.0            3     75          
1996-02-26 12   20.2    49.2            3     85          
1996-02-26 18   20.4    48.8            3     95          
1996-02-27 00   20.6    48.5            3     95          
1996-02-27 06   20.9    48.3            3     90          
1996-02-27 12   21.3    48.7            3     85          
1996-02-27 18   21.2    49.2            3     80          
1996-02-28 00   21.0    49.5            3     75          
1996-02-28 06   20.7    49.1            3     75          
1996-02-28 12   20.2    48.6            1     45          
1996-02-28 18   20.0    48.2            1     40          
1996-02-29 00   19.9    48.0                  35          
1996-02-29 06   20.0    47.7                  30          
1996-02-29 12   20.2    47.6                  30          
1996-02-29 18   20.4    47.5                  25          
Winds are 1-min average.

Tropical cyclone tracks developed by Michael Bath using data from the Joint Typhoon Warning Centre Best Tracks and Google Maps.


[Australian Severe Weather index] [Copyright Notice] [Email Contacts] [Search This Site] [Privacy Policy]
Document: tropical_cyclone_edwige.htm Updated: 18 September 2016